BLACK BUTTE (BLB)

Elevation: 426' · STONY CR basin · Operator: US Army Corps of Engineers

Provisional data, subject to change.
Query executed Friday at 16:42:34   clock

Select a sensor type for a plot of data.
Note: Reservoir Flows are daily averages.

Earlier

Date RES ELE    STORAGE    RES CHG    TOC STO    ABV TOC    OUTFLOW    INFLOW    PPT INC    TEMP MN    TEMP MX    EVP PAN   
 FEET   AF   AF   AF   AF   CFS   CFS   INCHES   DEG F   DEG F   INCHES  
08/20/2014 447.56 47615 -599 136200 -88585 260 -21 0.00 16 30 0.25
08/21/2014 447.37 47163 -452 136200 -89037 221 14 0.00 18 33 0.26
08/22/2014 447.24 46855 -308 136200 -89345 149 14 0.00 19 32 0.25
08/23/2014 447.19 46737 -118 136200 -89463 54 18 0.00 19 37 0.28
08/24/2014 447.11 46549 -188 136200 -89651 8 -64 0.00 18 34 0.28
08/25/2014 447.09 46502 -47 136200 -89698 2 -3 0.00 15 31 0.23
08/26/2014 447.07 46455 -47 136200 -89745 1 -2 0.00 16 36 0.26
08/27/2014 447.05 46408 -47 136200 -89792 15 12 0.00 18 36 0.25
08/28/2014 446.92 46103 -- 136200 -- 196 64 0.00 20 37 0.26
08/29/2014 446.66 45497 -606 136200 -90703 294 6 0.00 21 33 0.22
08/30/2014 446.41 44920 -577 136200 -91280 278 6 0.00 19 35 0.25
08/31/2014 446.16 44347 -573 136200 -91853 290 22 0.00 19 36 0.25
09/01/2014 445.89 43733 -614 136200 -92467 280 -8 0.00 24 40 0.26
09/02/2014 445.66 43215 -518 136200 -92985 244 5 0.00 19 36 0.27
09/03/2014 445.44 42722 -493 136200 -93478 217 -11 0.00 17 38 0.26
09/04/2014 445.24 42278 -444 136200 -93922 184 -16 0.00 22 39 0.29
09/05/2014 445.08 41925 -353 136200 -94275 159 1 0.00 17 36 0.25
09/06/2014 445.00 41749 -176 136200 -94451 53 -16 0.00 17 34 0.24
09/07/2014 444.94 41617 -132 136200 -94583 13 -34 0.00 16 35 0.25
09/08/2014 444.92 41573 -44 136200 -94627 1 -2 0.00 13 32 0.24
09/09/2014 444.91 41551 -22 136200 -94649 0 6 0.00 13 33 0.21
09/10/2014 444.88 41486 -65 136200 -94714 1 -11 0.00 20 37 0.26
09/11/2014 444.76 41224 -262 136200 -94976 194 80 0.00 20 38 0.22
09/12/2014 444.49 40639 -585 136200 -95561 272 -4 0.00 20 38 0.23
09/13/2014 444.24 40102 -537 136200 -96098 271 18 0.00 21 37 0.23
09/14/2014 443.96 39507 -595 136200 -96693 276 -4 0.00 19 36 0.25
09/15/2014 443.70 38960 -547 136200 -97240 268 15 0.00 20 36 0.28
09/16/2014 443.45 38440 -520 136200 -97760 261 13 0.00 13 33 0.19
09/17/2014 443.24 38006 -434 136200 -98194 197 -- -- 15 33 0.30
09/18/2014 442.96 37434 -572 136200 -98766 -- -- -- -- -- --
09/19/2014 -- -- -- -- -- -- -- -- -- -- --

Later | Latest

Warning! This data is preliminary and subject to revision.

Download Data Now Download Data Now | Show BLB Map | Plot BLB Data | 1 Month BLB Data | Real-Time BLB Data | BLB Info